Time;durP1;ratioP1;P1;durP2;ratioP2;P2;SDS_P1;SDS_P2;PMS_P1;PMS_P2;Temp;Humidity;BMP_temperature;BMP_pressure;BME280_temperature;BME280_humidity;BME280_pressure;Samples;Min_cycle;Max_cycle;Signal;HPM_P1;HPM_P2
2023/04/15 00:01:36;;;;;;;10.53;7.10;;;9.00;73.10;;;;;;5081858;28;20522;-65
2023/04/15 00:04:11;;;;;;;10.97;6.50;;;8.90;73.10;;;;;;5079064;28;20656;-64
2023/04/15 00:06:40;;;;;;;11.65;7.03;;;8.90;73.20;;;;;;5084310;28;20466;-64
2023/04/15 00:09:21;;;;;;;10.37;6.67;;;8.90;73.30;;;;;;5087011;28;20226;-64
2023/04/15 00:11:57;;;;;;;12.43;6.10;;;8.90;73.30;;;;;;5079633;28;20543;-65
2023/04/15 00:14:37;;;;;;;9.70;5.70;;;8.90;73.40;;;;;;5086960;28;20835;-64
2023/04/15 00:17:09;;;;;;;12.48;5.47;;;8.90;73.40;;;;;;5078737;28;20464;-64
2023/04/15 00:19:43;;;;;;;8.63;5.60;;;8.90;73.40;;;;;;5072285;28;20654;-63
2023/04/15 00:22:17;;;;;;;8.80;5.47;;;8.90;73.40;;;;;;5085688;28;20573;-63
2023/04/15 00:24:52;;;;;;;8.07;5.20;;;8.90;73.40;;;;;;5085725;28;20792;-64
2023/04/15 00:27:26;;;;;;;8.20;5.27;;;8.90;73.40;;;;;;5065461;28;20997;-64
2023/04/15 00:29:56;;;;;;;9.30;5.97;;;8.80;73.40;;;;;;5064467;28;20517;-64
2023/04/15 00:32:28;;;;;;;9.17;5.97;;;8.80;73.30;;;;;;5080123;28;20481;-63
2023/04/15 00:35:08;;;;;;;9.63;6.20;;;8.80;73.30;;;;;;5079296;28;20954;-64
2023/04/15 00:37:41;;;;;;;10.90;6.60;;;8.80;73.40;;;;;;5083089;28;20465;-64
2023/04/15 00:40:34;;;;;;;9.00;6.40;;;8.70;73.40;;;;;;5066406;28;20475;-63
2023/04/15 00:43:06;;;;;;;10.82;6.85;;;8.70;73.50;;;;;;5079639;28;20483;-64
2023/04/15 00:45:46;;;;;;;10.15;6.82;;;8.70;73.50;;;;;;5077183;28;20224;-63
2023/04/15 00:48:22;;;;;;;9.73;6.43;;;8.70;73.50;;;;;;5077928;28;20229;-63
2023/04/15 00:50:55;;;;;;;9.93;6.90;;;8.70;73.50;;;;;;5066516;28;20534;-63
2023/04/15 00:53:32;;;;;;;11.77;7.10;;;8.70;73.50;;;;;;5069047;28;20472;-64
2023/04/15 00:56:13;;;;;;;12.20;7.22;;;8.70;73.50;;;;;;5063722;28;20459;-63
2023/04/15 00:58:43;;;;;;;10.45;7.55;;;8.60;73.50;;;;;;5081164;28;20256;-63
2023/04/15 01:01:24;;;;;;;15.70;7.70;;;8.60;73.50;;;;;;5078054;28;20241;-63
2023/04/15 01:03:57;;;;;;;11.40;7.70;;;8.60;73.60;;;;;;5079063;28;20863;-63
2023/04/15 01:06:31;;;;;;;9.50;6.80;;;8.60;73.60;;;;;;5080860;28;20210;-64
2023/04/15 01:09:04;;;;;;;15.52;8.05;;;8.60;73.70;;;;;;5064611;28;20475;-64
2023/04/15 01:11:50;;;;;;;13.17;7.60;;;8.60;73.80;;;;;;5071474;28;20512;-64
2023/04/15 01:14:21;;;;;;;9.73;6.30;;;8.60;73.90;;;;;;5081263;28;20456;-63
2023/04/15 01:16:59;;;;;;;10.10;6.38;;;8.60;73.90;;;;;;5079440;28;20213;-64
2023/04/15 01:19:30;;;;;;;13.40;6.77;;;8.60;73.90;;;;;;5079679;28;20716;-63
2023/04/15 01:22:04;;;;;;;12.47;7.20;;;8.60;73.80;;;;;;5078476;28;20471;-64
2023/04/15 01:24:41;;;;;;;11.37;7.70;;;8.60;73.80;;;;;;5084794;28;20497;-63
2023/04/15 01:27:13;;;;;;;15.98;8.05;;;8.60;73.80;;;;;;5082521;28;20770;-64
2023/04/15 01:29:55;;;;;;;11.25;7.35;;;8.60;73.80;;;;;;5062893;28;20194;-64
2023/04/15 01:32:25;;;;;;;15.55;7.43;;;8.60;73.90;;;;;;5055532;28;20229;-64
2023/04/15 01:34:55;;;;;;;10.50;6.20;;;8.60;74.00;;;;;;5067795;28;20312;-64
2023/04/15 01:37:36;;;;;;;10.70;7.60;;;8.60;74.00;;;;;;5082509;28;20462;-64
2023/04/15 01:40:23;;;;;;;11.40;6.53;;;8.60;74.10;;;;;;5067220;28;21026;-64
2023/04/15 01:43:02;;;;;;;7.93;5.67;;;8.70;74.00;;;;;;5041834;28;20464;-64
2023/04/15 01:45:36;;;;;;;9.97;6.20;;;8.60;74.00;;;;;;5061796;28;20781;-64
2023/04/15 01:48:08;;;;;;;7.67;5.20;;;8.60;74.10;;;;;;5060760;28;20453;-64
2023/04/15 01:50:41;;;;;;;9.33;6.10;;;8.60;74.10;;;;;;5078584;28;20459;-64
2023/04/15 01:53:14;;;;;;;10.43;7.20;;;8.60;74.20;;;;;;5048967;28;20499;-64
2023/04/15 01:55:48;;;;;;;10.68;6.10;;;8.60;74.20;;;;;;5071687;28;20474;-64
2023/04/15 01:58:21;;;;;;;14.20;6.70;;;8.70;74.20;;;;;;5068904;28;20222;-64
2023/04/15 02:00:50;;;;;;;9.18;6.30;;;8.70;74.30;;;;;;5061769;28;20538;-63
2023/04/15 02:03:22;;;;;;;9.38;6.85;;;8.70;74.30;;;;;;5079299;28;20210;-64
2023/04/15 02:05:55;;;;;;;9.40;7.05;;;8.70;74.30;;;;;;5081363;28;20209;-64
2023/04/15 02:08:29;;;;;;;11.30;7.60;;;8.60;74.30;;;;;;5078032;28;20545;-64
2023/04/15 02:11:00;;;;;;;10.10;6.85;;;8.60;74.30;;;;;;5064353;28;20473;-62
2023/04/15 02:13:51;;;;;;;9.60;7.77;;;8.60;74.30;;;;;;5081311;28;20231;-65
2023/04/15 02:16:25;;;;;;;11.65;7.68;;;8.60;74.40;;;;;;5062683;28;20962;-64
2023/04/15 02:19:03;;;;;;;11.45;7.70;;;8.60;74.40;;;;;;5077990;28;20661;-64
2023/04/15 02:21:35;;;;;;;11.32;8.00;;;8.60;74.40;;;;;;5065702;28;20717;-64
2023/04/15 02:24:09;;;;;;;12.53;8.03;;;8.60;74.50;;;;;;5084152;28;20277;-68
2023/04/15 02:26:50;;;;;;;13.00;8.27;;;8.60;74.50;;;;;;5084680;28;20458;-62
2023/04/15 02:29:33;;;;;;;13.38;8.85;;;8.60;74.50;;;;;;5066064;28;20256;-64
2023/04/15 02:32:03;;;;;;;13.73;8.93;;;8.60;74.60;;;;;;5079164;28;20223;-62
2023/04/15 02:34:40;;;;;;;15.23;8.77;;;8.60;74.70;;;;;;5076859;28;20205;-64
2023/04/15 02:37:15;;;;;;;11.02;7.25;;;8.60;74.70;;;;;;5067735;28;20451;-62
2023/04/15 02:39:52;;;;;;;10.60;7.25;;;8.70;74.80;;;;;;5063480;28;20210;-63
2023/04/15 02:42:31;;;;;;;11.67;7.80;;;8.70;74.80;;;;;;5081729;28;20237;-62
2023/04/15 02:45:22;;;;;;;10.30;7.10;;;8.70;74.70;;;;;;5062982;28;20511;-63
2023/04/15 02:48:05;;;;;;;11.75;7.10;;;8.70;74.70;;;;;;5082839;28;20268;-63
2023/04/15 02:50:44;;;;;;;7.55;5.70;;;8.70;74.80;;;;;;5076115;28;20209;-65
2023/04/15 02:53:19;;;;;;;8.50;5.80;;;8.70;74.80;;;;;;5083911;28;20217;-65
2023/04/15 02:55:54;;;;;;;14.33;6.97;;;8.70;74.90;;;;;;5052893;28;20822;-63
2023/04/15 02:58:29;;;;;;;10.00;6.80;;;8.70;74.90;;;;;;5063806;28;20467;-65
2023/04/15 03:01:07;;;;;;;10.35;7.05;;;8.70;74.80;;;;;;5068110;28;20225;-65
2023/04/15 03:03:43;;;;;;;10.97;7.40;;;8.70;74.80;;;;;;5077843;28;20870;-64
2023/04/15 03:06:13;;;;;;;10.10;6.95;;;8.60;74.90;;;;;;5059202;28;20457;-65
2023/04/15 03:08:49;;;;;;;10.90;7.93;;;8.60;74.90;;;;;;5062347;28;20213;-65
2023/04/15 03:11:22;;;;;;;14.43;7.77;;;8.60;74.90;;;;;;5081550;28;20487;-62
2023/04/15 03:13:53;;;;;;;11.03;7.00;;;8.60;74.90;;;;;;5078680;28;20482;-62
2023/04/15 03:16:50;;;;;;;11.60;7.37;;;8.60;75.10;;;;;;5081210;28;20467;-64
2023/04/15 03:19:23;;;;;;;10.15;7.05;;;8.60;75.10;;;;;;5080869;28;20463;-64
2023/04/15 03:21:58;;;;;;;10.77;6.82;;;8.60;75.20;;;;;;5076198;28;20207;-63
2023/04/15 03:24:31;;;;;;;12.27;7.13;;;8.60;75.20;;;;;;5059306;28;20556;-63
2023/04/15 03:27:06;;;;;;;10.93;7.27;;;8.60;75.10;;;;;;5080030;28;20464;-63
2023/04/15 03:29:42;;;;;;;13.50;7.50;;;8.60;75.10;;;;;;5079267;28;20450;-63
2023/04/15 03:32:32;;;;;;;9.63;7.05;;;8.50;75.10;;;;;;5077914;28;21001;-62
2023/04/15 03:35:02;;;;;;;11.40;7.45;;;8.50;75.20;;;;;;5076308;28;20696;-62
2023/04/15 03:40:16;;;;;;;9.20;6.40;;;8.50;75.20;;;;;;5076877;28;20528;-63
2023/04/15 03:42:57;;;;;;;12.95;7.93;;;8.50;75.20;;;;;;5077913;28;20459;-63
2023/04/15 03:45:28;;;;;;;13.10;7.57;;;8.50;75.30;;;;;;5084069;28;20242;-62
2023/04/15 03:48:21;;;;;;;8.65;6.03;;;8.50;75.30;;;;;;5080421;28;20616;-62
2023/04/15 03:50:55;;;;;;;10.03;6.03;;;8.50;75.30;;;;;;5084451;28;20214;-63
2023/04/15 03:53:35;;;;;;;8.02;5.93;;;8.50;75.30;;;;;;5081910;28;20932;-62
2023/04/15 03:56:09;;;;;;;10.52;6.55;;;8.50;75.30;;;;;;5080563;28;20209;-63
2023/04/15 03:58:42;;;;;;;8.98;6.20;;;8.50;75.30;;;;;;5081515;28;20214;-63
2023/04/15 04:04:12;;;;;;;10.05;6.28;;;8.40;75.40;;;;;;5079138;28;20465;-62
2023/04/15 04:06:50;;;;;;;9.15;5.90;;;8.40;75.30;;;;;;5081007;28;20269;-63
2023/04/15 04:09:31;;;;;;;9.68;6.28;;;8.30;75.40;;;;;;5076820;28;20225;-63
2023/04/15 04:12:10;;;;;;;9.73;6.23;;;8.30;75.40;;;;;;5080524;28;20241;-62
2023/04/15 04:14:47;;;;;;;11.65;6.95;;;8.30;75.40;;;;;;5078376;28;20811;-63
2023/04/15 04:17:19;;;;;;;8.83;6.33;;;8.30;75.40;;;;;;5079692;28;20218;-62
2023/04/15 04:20:05;;;;;;;10.50;6.70;;;8.30;75.50;;;;;;5080826;28;20961;-62
2023/04/15 04:22:42;;;;;;;8.63;6.35;;;8.30;75.50;;;;;;5079897;28;20210;-62
2023/04/15 04:25:16;;;;;;;9.30;6.70;;;8.30;75.50;;;;;;5066375;28;20310;-62
2023/04/15 04:27:48;;;;;;;10.75;8.00;;;8.30;75.60;;;;;;5079748;28;20469;-62
2023/04/15 04:30:23;;;;;;;10.93;7.25;;;8.30;75.60;;;;;;5078886;28;20546;-63
2023/04/15 04:32:52;;;;;;;12.00;7.57;;;8.30;75.70;;;;;;5080472;28;20735;-63
2023/04/15 04:35:43;;;;;;;10.70;6.80;;;8.30;75.70;;;;;;5086660;28;20194;-62
2023/04/15 04:38:23;;;;;;;11.55;7.20;;;8.30;75.80;;;;;;5085103;28;20798;-63
2023/04/15 04:40:55;;;;;;;10.20;6.32;;;8.30;75.80;;;;;;5081068;28;20292;-62
2023/04/15 04:43:32;;;;;;;10.88;7.63;;;8.30;75.80;;;;;;5081673;28;20268;-63
2023/04/15 04:46:07;;;;;;;11.35;7.30;;;8.30;75.80;;;;;;5083405;28;20225;-63
2023/04/15 04:48:41;;;;;;;12.48;7.13;;;8.30;75.90;;;;;;5071395;28;20208;-62
2023/04/15 04:51:25;;;;;;;10.47;7.37;;;8.30;75.80;;;;;;5074047;28;20215;-63
2023/04/15 04:53:58;;;;;;;10.80;7.88;;;8.30;75.80;;;;;;5087168;28;20537;-68
2023/04/15 04:56:40;;;;;;;13.52;7.20;;;8.30;75.90;;;;;;5083496;28;20259;-63
2023/04/15 04:59:20;;;;;;;13.90;8.50;;;8.30;76.00;;;;;;5082648;28;20700;-62
2023/04/15 05:01:55;;;;;;;12.43;7.72;;;8.30;76.00;;;;;;5083899;28;20686;-63
2023/04/15 05:04:33;;;;;;;14.00;8.13;;;8.40;76.00;;;;;;5082772;28;20198;-63
2023/04/15 05:07:11;;;;;;;12.50;9.50;;;8.40;76.00;;;;;;5079963;28;20488;-63
2023/04/15 05:09:40;;;;;;;17.60;10.67;;;8.40;76.00;;;;;;5081873;28;20925;-62
2023/04/15 05:12:26;;;;;;;124.07;61.83;;;8.40;76.10;;;;;;5085344;28;20462;-63
2023/04/15 05:15:12;;;;;;;73.60;41.97;;;8.40;76.10;;;;;;5082745;28;20210;-63
2023/04/15 05:17:51;;;;;;;70.28;38.72;;;8.40;76.30;;;;;;5083828;28;20461;-63
2023/04/15 05:20:22;;;;;;;27.52;16.67;;;8.50;76.30;;;;;;5085895;28;20214;-63
2023/04/15 05:23:01;;;;;;;26.20;16.30;;;8.50;76.30;;;;;;5084641;28;20635;-63
2023/04/15 05:25:31;;;;;;;24.23;14.70;;;8.50;76.30;;;;;;5084648;28;20491;-63
2023/04/15 05:28:05;;;;;;;22.20;11.30;;;8.50;76.30;;;;;;5084647;28;20945;-63
2023/04/15 05:30:38;;;;;;;14.95;9.50;;;8.60;76.40;;;;;;5085030;28;20488;-62
2023/04/15 05:33:08;;;;;;;11.33;8.07;;;8.60;76.40;;;;;;5082948;28;20199;-62
2023/04/15 05:35:47;;;;;;;10.00;7.33;;;8.60;76.40;;;;;;5080585;28;20807;-63
2023/04/15 05:38:25;;;;;;;10.93;7.65;;;8.60;76.40;;;;;;5066324;28;20468;-62
2023/04/15 05:41:05;;;;;;;9.63;7.20;;;8.60;76.50;;;;;;5083964;28;20259;-63
2023/04/15 05:43:35;;;;;;;10.77;7.03;;;8.60;76.50;;;;;;5084525;28;20461;-62
2023/04/15 05:46:15;;;;;;;11.50;7.67;;;8.70;76.60;;;;;;5083450;28;20472;-62
2023/04/15 05:48:48;;;;;;;9.20;6.90;;;8.70;76.60;;;;;;5083566;28;20463;-63
2023/04/15 05:51:22;;;;;;;12.33;7.70;;;8.70;76.60;;;;;;5083547;28;20444;-62
2023/04/15 05:53:58;;;;;;;14.20;7.07;;;8.70;76.70;;;;;;5086681;28;20459;-63
2023/04/15 05:56:37;;;;;;;10.00;7.30;;;8.70;76.70;;;;;;5085530;28;20521;-63
2023/04/15 05:59:11;;;;;;;14.10;8.40;;;8.70;76.70;;;;;;5083395;28;20464;-63
2023/04/15 06:01:45;;;;;;;11.20;6.90;;;8.80;76.80;;;;;;5084406;28;21050;-62
2023/04/15 06:04:25;;;;;;;12.57;7.57;;;8.80;76.80;;;;;;5084490;28;20476;-62
2023/04/15 06:06:57;;;;;;;12.80;8.50;;;8.90;76.90;;;;;;5068017;28;20562;-62
2023/04/15 06:09:48;;;;;;;9.70;7.40;;;8.90;76.90;;;;;;5069210;28;20468;-62
2023/04/15 06:12:23;;;;;;;12.63;8.73;;;9.00;77.00;;;;;;5088100;28;21048;-62
2023/04/15 06:14:56;;;;;;;13.97;8.47;;;9.00;77.00;;;;;;5079159;28;20515;-63
2023/04/15 06:17:30;;;;;;;13.87;8.27;;;9.00;77.00;;;;;;5084757;28;20787;-62
2023/04/15 06:20:05;;;;;;;13.20;7.80;;;9.10;77.00;;;;;;5084686;28;20468;-63
2023/04/15 06:22:45;;;;;;;13.33;8.60;;;9.10;77.10;;;;;;5085340;28;20252;-63
2023/04/15 06:25:31;;;;;;;10.85;7.35;;;9.10;77.10;;;;;;5085891;28;20452;-63
2023/04/15 06:28:10;;;;;;;9.10;6.50;;;9.20;77.20;;;;;;5081995;28;20205;-63
2023/04/15 06:30:46;;;;;;;9.30;6.77;;;9.20;77.20;;;;;;5080304;28;20485;-62
2023/04/15 06:33:26;;;;;;;8.20;5.97;;;9.20;77.30;;;;;;5078783;28;20462;-63
2023/04/15 06:35:57;;;;;;;11.73;7.10;;;9.20;77.30;;;;;;5087103;28;20446;-62
2023/04/15 06:38:30;;;;;;;9.98;6.57;;;9.30;77.30;;;;;;5082999;28;20933;-63
2023/04/15 06:41:21;;;;;;;10.90;6.43;;;9.30;77.40;;;;;;5082417;28;20678;-63
2023/04/15 06:43:50;;;;;;;10.07;6.73;;;9.30;77.40;;;;;;5086327;28;20461;-62
2023/04/15 06:46:24;;;;;;;10.40;7.50;;;9.30;77.50;;;;;;5079897;28;20964;-62
2023/04/15 06:48:57;;;;;;;10.93;7.30;;;9.40;77.50;;;;;;5078500;28;20448;-63
2023/04/15 06:51:32;;;;;;;11.00;7.90;;;9.40;77.60;;;;;;5082297;28;20463;-62
2023/04/15 06:54:17;;;;;;;11.53;7.80;;;9.50;77.70;;;;;;5082709;28;20449;-63
2023/04/15 06:57:04;;;;;;;11.27;7.57;;;9.50;77.70;;;;;;5085368;28;20452;-62
2023/04/15 06:59:33;;;;;;;13.53;8.70;;;9.60;77.80;;;;;;5081036;28;20497;-62
2023/04/15 07:02:05;;;;;;;16.83;8.43;;;9.60;77.80;;;;;;5064329;28;20477;-63
2023/04/15 07:04:45;;;;;;;11.93;8.23;;;9.60;77.80;;;;;;5082597;28;20517;-62
2023/04/15 07:07:17;;;;;;;12.57;8.03;;;9.70;77.90;;;;;;5084330;28;20485;-63
2023/04/15 07:09:52;;;;;;;15.40;8.20;;;9.70;77.80;;;;;;5082581;28;20521;-63
2023/04/15 07:12:28;;;;;;;11.70;7.20;;;9.70;78.00;;;;;;5083771;28;20797;-63
2023/04/15 07:15:01;;;;;;;12.40;7.23;;;9.80;78.10;;;;;;5080259;28;20461;-63
2023/04/15 07:17:34;;;;;;;10.40;6.53;;;9.80;78.10;;;;;;5079887;28;20484;-62
2023/04/15 07:20:29;;;;;;;15.67;7.73;;;9.90;78.10;;;;;;5083078;28;20458;-63
2023/04/15 07:23:04;;;;;;;12.10;7.20;;;10.00;78.00;;;;;;5080153;28;20982;-63
2023/04/15 07:25:43;;;;;;;11.10;6.50;;;10.00;78.00;;;;;;5085104;28;20472;-62
2023/04/15 07:28:21;;;;;;;9.87;6.77;;;10.10;78.00;;;;;;5079677;28;20499;-62
2023/04/15 07:30:53;;;;;;;9.03;6.20;;;10.20;78.00;;;;;;5076265;28;20515;-62
2023/04/15 07:33:25;;;;;;;13.60;8.00;;;10.20;77.90;;;;;;5059629;28;20461;-62
2023/04/15 07:36:00;;;;;;;7.93;5.60;;;10.30;77.90;;;;;;5077929;28;20936;-65
2023/04/15 07:38:33;;;;;;;8.80;6.07;;;10.40;77.70;;;;;;5084546;28;20978;-62
2023/04/15 07:41:14;;;;;;;11.70;6.70;;;10.40;77.60;;;;;;5080297;28;20481;-62
2023/04/15 07:43:53;;;;;;;9.17;5.87;;;10.40;77.60;;;;;;5081328;28;20747;-63
2023/04/15 07:46:30;;;;;;;9.73;5.77;;;10.40;77.60;;;;;;5078515;28;20542;-63
2023/04/15 07:49:02;;;;;;;10.37;6.53;;;10.40;77.70;;;;;;5082175;28;20453;-63
2023/04/15 07:51:34;;;;;;;11.27;6.50;;;10.50;77.70;;;;;;5077811;28;20498;-63
2023/04/15 07:54:12;;;;;;;10.33;6.57;;;10.50;77.60;;;;;;5081669;28;20468;-63
2023/04/15 07:56:49;;;;;;;14.77;6.80;;;10.60;77.60;;;;;;5084528;28;20496;-64
2023/04/15 07:59:28;;;;;;;13.87;6.50;;;10.70;77.60;;;;;;5080967;28;20800;-63
2023/04/15 08:02:01;;;;;;;9.87;6.27;;;10.70;77.50;;;;;;5079039;28;20913;-63
2023/04/15 08:04:34;;;;;;;10.27;6.23;;;10.80;77.40;;;;;;5077195;28;20489;-63
2023/04/15 08:07:08;;;;;;;9.70;6.70;;;10.80;77.30;;;;;;5080451;28;20544;-64
2023/04/15 08:09:39;;;;;;;14.60;5.90;;;10.90;77.30;;;;;;5083772;28;20497;-63
2023/04/15 08:12:16;;;;;;;10.93;6.93;;;10.90;77.30;;;;;;5084834;28;20480;-63
2023/04/15 08:14:50;;;;;;;10.63;6.90;;;11.00;77.30;;;;;;5082235;28;20523;-63
2023/04/15 08:17:28;;;;;;;10.10;6.63;;;11.00;77.20;;;;;;5080159;28;20882;-63
2023/04/15 08:20:00;;;;;;;14.13;7.07;;;11.10;77.10;;;;;;5084899;28;20468;-63
2023/04/15 08:22:35;;;;;;;10.90;6.63;;;11.20;76.70;;;;;;5083229;28;20467;-63
2023/04/15 08:25:09;;;;;;;10.50;6.47;;;11.20;76.80;;;;;;5086252;28;21083;-63
2023/04/15 08:27:43;;;;;;;9.70;6.90;;;11.20;76.70;;;;;;5085130;28;20881;-64
2023/04/15 08:30:19;;;;;;;8.93;6.37;;;11.20;76.70;;;;;;5080886;28;20500;-63
2023/04/15 08:33:10;;;;;;;8.60;5.87;;;11.20;76.50;;;;;;5083666;28;20478;-63
2023/04/15 08:35:44;;;;;;;8.37;6.07;;;11.20;76.60;;;;;;5089328;28;20472;-63
2023/04/15 08:38:17;;;;;;;9.73;6.13;;;11.20;76.50;;;;;;5082779;28;20470;-63
2023/04/15 08:40:49;;;;;;;12.80;6.50;;;11.30;76.40;;;;;;5088336;28;20461;-63
2023/04/15 08:43:25;;;;;;;8.80;5.53;;;11.30;76.30;;;;;;5083556;28;20793;-63
2023/04/15 08:46:07;;;;;;;7.83;5.37;;;11.40;76.20;;;;;;5068831;28;20955;-63
2023/04/15 08:48:39;;;;;;;8.70;5.50;;;11.50;75.90;;;;;;5086991;28;20480;-63
2023/04/15 08:51:14;;;;;;;9.23;5.30;;;11.50;75.80;;;;;;5082177;28;20533;-63
2023/04/15 08:53:48;;;;;;;8.87;5.27;;;11.50;75.30;;;;;;5083543;28;20453;-63
2023/04/15 08:56:21;;;;;;;7.30;4.17;;;11.60;75.30;;;;;;5079316;28;20540;-63
2023/04/15 08:58:57;;;;;;;8.57;4.60;;;11.60;75.20;;;;;;5087512;28;20439;-63
2023/04/15 09:01:39;;;;;;;8.27;4.80;;;11.60;74.90;;;;;;5083864;28;20472;-63
2023/04/15 09:04:17;;;;;;;7.67;3.97;;;11.70;74.70;;;;;;5079679;28;20465;-63
2023/04/15 09:06:52;;;;;;;7.13;4.47;;;11.70;74.40;;;;;;5061126;28;20558;-63
2023/04/15 09:09:27;;;;;;;6.67;4.37;;;11.60;74.00;;;;;;5064212;28;21065;-63
2023/04/15 09:12:05;;;;;;;9.13;3.03;;;11.60;73.70;;;;;;5084508;28;20518;-63
2023/04/15 09:14:45;;;;;;;6.03;3.30;;;11.60;73.60;;;;;;5083400;28;20537;-63
2023/04/15 09:17:26;;;;;;;7.53;3.23;;;11.70;73.70;;;;;;5080168;28;20455;-63
2023/04/15 09:20:11;;;;;;;7.87;2.80;;;11.60;71.90;;;;;;5084596;28;20546;-63
2023/04/15 09:22:45;;;;;;;5.73;2.90;;;11.70;72.70;;;;;;5087088;28;20488;-63
2023/04/15 09:25:29;;;;;;;5.97;3.43;;;11.70;72.30;;;;;;5079914;28;20467;-64
2023/04/15 09:28:05;;;;;;;5.40;2.67;;;11.80;72.20;;;;;;5083761;28;20587;-63
2023/04/15 09:30:44;;;;;;;5.30;2.23;;;11.80;72.10;;;;;;5084216;28;20478;-64
2023/04/15 09:33:29;;;;;;;4.93;2.73;;;11.90;71.90;;;;;;5082310;28;20461;-64
2023/04/15 09:36:03;;;;;;;6.37;2.70;;;12.00;71.50;;;;;;5067241;28;20459;-64
2023/04/15 09:38:34;;;;;;;4.37;2.13;;;12.10;71.30;;;;;;5083816;28;20486;-64
2023/04/15 09:41:18;;;;;;;6.23;2.57;;;12.20;70.90;;;;;;5082997;28;20461;-64
2023/04/15 09:43:55;;;;;;;5.97;2.63;;;12.20;70.50;;;;;;5080201;28;20466;-63
2023/04/15 09:46:48;;;;;;;7.70;2.93;;;12.20;70.60;;;;;;5063028;28;20540;-63
2023/04/15 09:49:32;;;;;;;5.93;2.80;;;12.20;70.30;;;;;;5066168;28;20512;-64
2023/04/15 09:52:16;;;;;;;6.47;3.20;;;12.20;70.10;;;;;;5063900;28;20458;-63
2023/04/15 09:54:53;;;;;;;7.00;2.80;;;12.10;70.20;;;;;;5085775;28;21009;-63
2023/04/15 09:57:24;;;;;;;5.07;2.87;;;12.10;70.20;;;;;;5079513;28;20854;-64
2023/04/15 09:59:55;;;;;;;9.47;5.43;;;12.10;70.20;;;;;;5081617;28;20471;-64
2023/04/15 10:02:35;;;;;;;9.67;4.60;;;12.10;70.10;;;;;;5082230;28;20515;-64
2023/04/15 10:05:11;;;;;;;92.87;42.07;;;12.00;69.90;;;;;;5082396;28;20498;-64
2023/04/15 10:07:53;;;;;;;9.00;4.57;;;12.00;70.20;;;;;;5067289;28;20521;-64
2023/04/15 10:10:28;;;;;;;6.97;3.63;;;12.00;70.20;;;;;;5083842;28;20482;-64
2023/04/15 10:12:59;;;;;;;6.20;3.50;;;12.10;70.10;;;;;;5079623;28;20463;-64
2023/04/15 10:15:32;;;;;;;6.40;3.63;;;12.10;69.90;;;;;;5082472;28;20502;-64
2023/04/15 10:18:03;;;;;;;7.37;3.57;;;12.10;69.90;;;;;;5081937;28;20791;-63
2023/04/15 10:20:52;;;;;;;7.97;3.90;;;12.20;70.00;;;;;;5083334;28;20982;-64
2023/04/15 10:23:33;;;;;;;7.23;3.23;;;12.20;69.90;;;;;;5067410;28;20481;-64
2023/04/15 10:26:07;;;;;;;5.87;3.40;;;12.20;69.90;;;;;;5065754;28;20820;-64
2023/04/15 10:28:41;;;;;;;7.97;3.60;;;12.20;69.70;;;;;;5078417;28;20528;-64
2023/04/15 10:31:14;;;;;;;8.17;3.93;;;12.20;69.70;;;;;;5077501;28;20570;-63
2023/04/15 10:33:50;;;;;;;5.73;3.70;;;12.00;69.70;;;;;;5082078;28;20454;-63
2023/04/15 10:36:34;;;;;;;5.67;3.17;;;12.10;69.80;;;;;;5078157;28;20469;-63
2023/04/15 10:39:53;;;;;;;6.30;3.40;;;12.10;69.80;;;;;;5078811;28;20455;-64
2023/04/15 10:42:32;;;;;;;3.97;1.50;;;12.00;69.70;;;;;;5077736;28;20461;-64
2023/04/15 10:45:03;;;;;;;3.70;1.30;;;11.90;69.40;;;;;;5076939;28;20453;-64
2023/04/15 10:47:42;;;;;;;4.60;1.77;;;11.80;69.10;;;;;;5078416;28;20482;-63
2023/04/15 10:50:16;;;;;;;3.60;1.40;;;11.80;69.30;;;;;;5078763;28;20468;-64
2023/04/15 10:52:56;;;;;;;4.60;1.33;;;11.90;69.10;;;;;;5075647;28;20905;-64
2023/04/15 10:55:27;;;;;;;3.80;1.20;;;11.80;68.80;;;;;;5081371;28;20519;-64
2023/04/15 10:58:01;;;;;;;3.60;1.10;;;11.80;68.60;;;;;;5078349;28;20555;-64
2023/04/15 11:00:39;;;;;;;4.50;1.17;;;11.70;68.70;;;;;;5074634;28;20470;-64
2023/04/15 11:03:12;;;;;;;4.57;1.40;;;11.60;68.70;;;;;;5079820;28;20461;-64
2023/04/15 11:05:56;;;;;;;4.13;1.20;;;11.50;68.70;;;;;;5080908;28;20570;-64
2023/04/15 11:09:08;;;;;;;4.13;1.30;;;11.40;68.80;;;;;;5078835;28;20479;-64
2023/04/15 11:12:06;;;;;;;4.50;1.70;;;11.40;68.90;;;;;;5078902;28;20476;-63
2023/04/15 11:14:46;;;;;;;4.17;1.37;;;11.30;68.90;;;;;;5082914;28;20456;-63
2023/04/15 11:17:31;;;;;;;3.40;1.27;;;11.30;69.00;;;;;;5083522;28;20499;-63
2023/04/15 11:20:09;;;;;;;4.63;1.50;;;11.30;68.90;;;;;;5084084;28;20468;-64
2023/04/15 11:22:48;;;;;;;4.43;1.27;;;11.30;68.80;;;;;;5081609;28;20517;-63
2023/04/15 11:25:40;;;;;;;3.40;1.20;;;11.40;68.70;;;;;;5063670;28;20462;-63
2023/04/15 11:28:21;;;;;;;4.00;1.63;;;11.40;68.70;;;;;;5080320;28;20460;-64
2023/04/15 11:33:46;;;;;;;7.30;4.23;;;11.40;68.80;;;;;;5079751;28;20461;-64
2023/04/15 11:36:21;;;;;;;4.27;1.93;;;11.50;68.80;;;;;;5082892;28;20452;-64
2023/04/15 11:38:52;;;;;;;3.90;1.97;;;11.60;68.80;;;;;;5079917;28;20451;-64
2023/04/15 11:41:29;;;;;;;8.07;2.73;;;11.50;68.90;;;;;;5081916;28;20839;-63
2023/04/15 11:44:00;;;;;;;7.93;3.40;;;11.50;69.10;;;;;;5081796;28;20985;-63
2023/04/15 11:46:34;;;;;;;8.03;3.33;;;11.50;69.10;;;;;;5087849;28;20462;-63
2023/04/15 11:51:52;;;;;;;3.50;1.30;;;11.60;69.50;;;;;;5088498;28;20468;-64
2023/04/15 11:54:21;;;;;;;3.93;1.50;;;11.60;69.70;;;;;;5082914;28;20583;-64
2023/04/15 11:57:10;;;;;;;3.40;1.43;;;11.60;69.80;;;;;;5078842;28;20469;-63
2023/04/15 11:59:45;;;;;;;4.27;1.47;;;11.60;70.10;;;;;;5083012;28;20503;-63
2023/04/15 12:02:25;;;;;;;5.03;1.60;;;11.50;70.40;;;;;;5084011;28;20998;-63
2023/04/15 12:05:05;;;;;;;4.40;1.47;;;11.50;70.60;;;;;;5084086;28;20459;-63
2023/04/15 12:07:42;;;;;;;5.30;1.50;;;11.50;71.00;;;;;;5083665;28;20979;-63
2023/04/15 12:10:21;;;;;;;6.57;3.27;;;11.40;71.30;;;;;;5079817;28;20477;-63
2023/04/15 12:12:56;;;;;;;5.10;3.33;;;11.50;71.30;;;;;;5081857;28;20448;-63
2023/04/15 12:15:29;;;;;;;8.90;6.43;;;11.30;71.70;;;;;;5085066;28;20487;-63
2023/04/15 12:18:03;;;;;;;7.13;3.60;;;11.30;71.60;;;;;;5086207;28;21162;-64
2023/04/15 12:20:46;;;;;;;7.57;4.27;;;11.30;71.70;;;;;;5084802;28;20464;-63
2023/04/15 12:23:20;;;;;;;6.87;5.07;;;11.30;72.00;;;;;;5084350;28;20491;-64
2023/04/15 12:26:01;;;;;;;5.90;2.90;;;11.30;72.20;;;;;;5082446;28;20473;-64
2023/04/15 12:28:39;;;;;;;7.37;3.90;;;11.30;72.30;;;;;;5066532;28;21013;-64
2023/04/15 12:31:23;;;;;;;5.43;2.87;;;11.30;72.40;;;;;;5082537;28;20483;-64
2023/04/15 12:33:59;;;;;;;10.37;8.07;;;11.30;72.50;;;;;;5083894;28;20477;-64
2023/04/15 12:36:40;;;;;;;3.30;1.20;;;11.30;72.70;;;;;;5071717;28;20564;-63
2023/04/15 12:39:12;;;;;;;4.30;1.60;;;11.10;73.10;;;;;;5082869;28;20459;-64
2023/04/15 12:41:45;;;;;;;3.80;1.70;;;11.00;73.10;;;;;;5082697;28;20461;-64
2023/04/15 12:44:24;;;;;;;3.80;1.73;;;11.00;73.60;;;;;;5067102;28;20452;-64
2023/04/15 12:46:58;;;;;;;3.97;1.70;;;11.10;73.40;;;;;;5084221;28;20461;-63
2023/04/15 12:49:38;;;;;;;4.50;2.10;;;11.20;73.30;;;;;;5077861;28;20481;-64
2023/04/15 12:52:10;;;;;;;3.43;1.43;;;11.20;73.30;;;;;;5084268;28;20456;-65
2023/04/15 12:54:50;;;;;;;3.97;1.77;;;11.10;73.40;;;;;;5082377;28;21364;-64
2023/04/15 12:57:24;;;;;;;4.20;1.83;;;11.10;73.50;;;;;;5083833;28;20965;-64
2023/04/15 12:59:59;;;;;;;3.73;1.77;;;11.10;73.60;;;;;;5083761;28;20565;-63
2023/04/15 13:02:34;;;;;;;5.10;2.70;;;11.10;73.50;;;;;;5075911;28;20501;-63
2023/04/15 13:05:10;;;;;;;5.17;2.90;;;11.20;73.60;;;;;;5087584;28;20454;-64
2023/04/15 13:07:41;;;;;;;5.20;1.70;;;11.20;73.70;;;;;;5082126;28;20468;-65
2023/04/15 13:10:19;;;;;;;4.73;1.70;;;11.20;73.70;;;;;;5085477;28;20487;-65
2023/04/15 13:12:52;;;;;;;3.90;1.70;;;11.20;73.80;;;;;;5081888;28;20497;-65
2023/04/15 13:15:44;;;;;;;7.30;2.10;;;11.30;73.90;;;;;;5082434;28;21217;-64
2023/04/15 13:18:15;;;;;;;4.60;2.17;;;11.30;74.00;;;;;;5080044;28;20500;-65
2023/04/15 13:20:52;;;;;;;4.60;2.03;;;11.20;74.30;;;;;;5087812;28;20546;-65
2023/04/15 13:23:21;;;;;;;5.80;2.07;;;11.20;74.50;;;;;;5080432;28;20462;-65
2023/04/15 13:26:04;;;;;;;5.57;2.20;;;11.20;74.50;;;;;;5081584;28;20480;-65
2023/04/15 13:28:37;;;;;;;4.63;2.47;;;11.20;74.70;;;;;;5082895;28;20469;-65
2023/04/15 13:31:11;;;;;;;4.37;2.00;;;11.20;74.80;;;;;;5077399;28;20497;-65
2023/04/15 13:33:44;;;;;;;4.77;2.00;;;11.20;74.90;;;;;;5080485;28;20458;-65
2023/04/15 13:36:18;;;;;;;4.87;2.73;;;11.20;75.10;;;;;;5063806;28;20458;-65
2023/04/15 13:38:50;;;;;;;4.47;2.17;;;11.10;75.30;;;;;;5084001;28;20450;-64
2023/04/15 13:41:22;;;;;;;4.77;2.10;;;11.10;75.50;;;;;;5080609;28;20515;-64
2023/04/15 13:43:58;;;;;;;6.53;2.50;;;11.10;75.60;;;;;;5078943;28;20459;-63
2023/04/15 13:46:39;;;;;;;4.33;2.17;;;11.10;75.70;;;;;;5083542;28;20467;-64
2023/04/15 13:49:24;;;;;;;4.50;2.47;;;11.10;75.90;;;;;;5082636;28;20809;-64